Terminal Aerodrome Forecast
Issued by NWS

Home | Current Version | Previous Version | Text Only | Print | Product List | Glossary On
Versions: 1 2 3 4 5 6 7 8 9 10 11 12 13 14
000
FTUS45 KREV 290520
TAFMMH
TAF
KMMH 290520Z 2906/3006 20010G18KT P6SM SCT140 BKN200
     FM291700 22028G38KT P6SM SCT140=

USA.gov is the U.S. government's official web portal to all federal, state and local government web resources and services.